Time;durP1;ratioP1;P1;durP2;ratioP2;P2;SDS_P1;SDS_P2;PMS_P1;PMS_P2;Temp;Humidity;BMP_temperature;BMP_pressure;BME280_temperature;BME280_humidity;BME280_pressure;Samples;Min_cycle;Max_cycle;Signal;HPM_P1;HPM_P2
2023/11/16 00:01:49;;;;;;;15.25;4.10;;;9.50;99.90;;;9.60;74.14;100547.53;5100664;28;20066;-82
2023/11/16 00:04:17;;;;;;;15.10;3.10;;;9.50;99.90;;;9.63;73.79;100544.47;5094979;28;20041;-82
2023/11/16 00:06:45;;;;;;;10.82;2.90;;;9.50;99.90;;;9.64;73.93;100538.13;5080311;28;20043;-82
2023/11/16 00:09:15;;;;;;;13.95;3.08;;;9.50;99.90;;;9.61;73.86;100540.38;5080386;28;20454;-82
2023/11/16 00:11:42;;;;;;;16.63;2.83;;;9.50;99.90;;;9.52;74.12;100537.09;5080023;28;20059;-82
2023/11/16 00:14:10;;;;;;;15.63;3.22;;;9.40;99.90;;;9.51;74.10;100536.25;5080038;28;20492;-82
2023/11/16 00:16:38;;;;;;;13.27;3.65;;;9.40;99.90;;;9.46;74.07;100533.38;5081203;28;20044;-83
2023/11/16 00:19:06;;;;;;;15.77;3.33;;;9.40;99.90;;;9.48;74.15;100526.03;5097834;28;20047;-82
2023/11/16 00:21:34;;;;;;;13.88;3.33;;;9.40;99.90;;;9.52;73.94;100543.25;5100837;28;20044;-82
2023/11/16 00:24:01;;;;;;;15.80;3.15;;;9.40;99.90;;;9.50;74.06;100529.28;5101195;28;20040;-82
2023/11/16 00:26:33;;;;;;;12.25;2.70;;;9.40;99.90;;;9.37;74.27;100539.09;5100234;28;20074;-82
2023/11/16 00:29:01;;;;;;;14.38;3.10;;;9.40;99.90;;;9.41;74.53;100543.81;5101273;28;20079;-82
2023/11/16 00:31:30;;;;;;;13.25;2.72;;;9.40;99.90;;;9.46;74.34;100538.69;5099739;28;20047;-82
2023/11/16 00:33:57;;;;;;;11.38;2.95;;;9.40;99.90;;;9.47;73.80;100534.22;5079570;28;20048;-82
2023/11/16 00:36:25;;;;;;;16.15;3.47;;;9.40;99.90;;;9.48;74.27;100533.19;5079832;28;20117;-82
2023/11/16 00:38:52;;;;;;;9.75;2.78;;;9.40;99.90;;;9.48;74.14;100536.69;5079892;28;20041;-82
2023/11/16 00:41:20;;;;;;;17.15;3.40;;;9.40;99.90;;;9.54;73.92;100529.72;5079577;28;20491;-82
2023/11/16 00:43:49;;;;;;;17.90;3.42;;;9.40;99.90;;;9.55;74.11;100537.50;5095305;28;20056;-82
2023/11/16 00:46:16;;;;;;;16.52;2.97;;;9.40;99.90;;;9.54;74.17;100532.38;5078466;28;20067;-83
2023/11/16 00:48:45;;;;;;;15.02;3.13;;;9.50;99.90;;;9.59;73.95;100537.91;5079855;28;20127;-82
2023/11/16 00:51:13;;;;;;;18.63;3.78;;;9.50;99.90;;;9.61;74.21;100535.03;5078320;28;20079;-82
2023/11/16 00:53:42;;;;;;;12.25;3.10;;;9.50;99.90;;;9.63;74.03;100533.00;5092520;28;20036;-82
2023/11/16 00:56:10;;;;;;;15.07;2.95;;;9.50;99.90;;;9.65;74.20;100531.78;5080108;28;20045;-82
2023/11/16 00:58:39;;;;;;;11.85;2.97;;;9.60;99.90;;;9.66;73.86;100525.44;5079845;28;20443;-82
2023/11/16 01:01:09;;;;;;;17.48;3.53;;;9.50;99.90;;;9.66;73.63;100525.44;5094706;28;20063;-82
2023/11/16 01:03:39;;;;;;;12.77;3.28;;;9.50;99.90;;;9.68;73.64;100519.91;5100260;28;20055;-82
2023/11/16 01:06:07;;;;;;;11.88;3.35;;;9.50;99.90;;;9.65;73.62;100515.78;5098728;28;20059;-82
2023/11/16 01:08:36;;;;;;;16.77;3.35;;;9.50;99.90;;;9.68;73.66;100514.59;5100015;28;20040;-82
2023/11/16 01:11:06;;;;;;;12.32;3.10;;;9.50;99.90;;;9.62;73.32;100524.22;5103718;28;20100;-81
2023/11/16 01:13:39;;;;;;;14.20;3.13;;;9.50;99.90;;;9.55;73.84;100518.03;5083828;28;20064;-82
2023/11/16 01:16:14;;;;;;;14.80;3.47;;;9.40;99.90;;;9.59;73.56;100527.25;5103024;28;20040;-82
2023/11/16 01:18:46;;;;;;;13.70;3.38;;;9.50;99.90;;;9.53;73.53;100515.59;5104045;28;20048;-82
2023/11/16 01:21:15;;;;;;;13.32;3.50;;;9.40;99.90;;;9.46;73.73;100521.91;5103913;28;20048;-82
2023/11/16 01:23:44;;;;;;;11.88;3.10;;;9.40;99.90;;;9.48;73.67;100522.53;5103269;28;20514;-81
2023/11/16 01:26:15;;;;;;;13.35;3.00;;;9.40;99.90;;;9.54;74.11;100519.06;5103033;28;20048;-82
2023/11/16 01:28:49;;;;;;;14.02;2.88;;;9.40;99.90;;;9.59;74.00;100521.94;5090861;28;20044;-82
2023/11/16 01:31:20;;;;;;;12.13;3.15;;;9.40;99.90;;;9.60;73.78;100523.56;5083292;28;20037;-82
2023/11/16 01:33:47;;;;;;;18.33;3.37;;;9.50;99.90;;;9.46;73.37;100517.41;5081382;28;20048;-82
2023/11/16 01:36:16;;;;;;;13.38;3.15;;;9.40;99.90;;;9.47;74.05;100519.06;5081543;28;20431;-82
2023/11/16 01:38:45;;;;;;;10.45;3.15;;;9.40;99.90;;;9.47;74.17;100519.06;5082366;28;20500;-82
2023/11/16 01:41:14;;;;;;;20.70;3.42;;;9.40;99.90;;;9.38;73.97;100519.47;5082570;28;20124;-82
2023/11/16 01:43:41;;;;;;;17.92;4.03;;;9.30;99.90;;;9.46;74.41;100517.41;5082871;28;20092;-82
2023/11/16 01:46:09;;;;;;;14.15;3.30;;;9.40;99.90;;;9.51;74.15;100514.94;5094275;28;20070;-83
2023/11/16 01:48:43;;;;;;;14.20;3.45;;;9.40;99.90;;;9.37;73.98;100521.31;5102388;28;20070;-82
2023/11/16 01:51:14;;;;;;;16.40;3.10;;;9.30;99.90;;;9.45;74.40;100522.94;5103380;28;20036;-82
2023/11/16 01:53:46;;;;;;;14.23;3.60;;;9.40;99.90;;;9.51;73.98;100525.59;5095615;28;20496;-82
2023/11/16 01:56:16;;;;;;;12.70;3.22;;;9.40;99.90;;;9.54;74.20;100527.06;5091522;28;20090;-82
2023/11/16 01:58:48;;;;;;;12.57;3.10;;;9.40;99.90;;;9.55;73.96;100526.03;5103639;28;20044;-82
2023/11/16 02:01:17;;;;;;;12.93;3.08;;;9.40;99.90;;;9.52;73.76;100523.78;5102465;28;20040;-82
2023/11/16 02:03:46;;;;;;;13.07;3.00;;;9.40;99.90;;;9.56;73.75;100522.34;5102995;28;20036;-82
2023/11/16 02:06:15;;;;;;;13.40;3.08;;;9.40;99.90;;;9.56;73.81;100519.66;5100822;28;20503;-82
2023/11/16 02:08:47;;;;;;;18.23;3.67;;;9.40;99.90;;;9.59;74.15;100519.28;5101036;28;20050;-82
2023/11/16 02:11:14;;;;;;;16.08;3.65;;;9.40;99.90;;;9.61;73.73;100529.72;5092876;28;20041;-82
2023/11/16 02:13:41;;;;;;;18.92;3.55;;;9.40;99.90;;;9.55;73.62;100526.84;5082241;28;20535;-82
2023/11/16 02:16:09;;;;;;;13.95;3.20;;;9.40;99.90;;;9.54;73.81;100524.41;5080504;28;20061;-82
2023/11/16 02:18:38;;;;;;;15.27;3.45;;;9.40;99.90;;;9.55;73.90;100534.00;5080843;28;20055;-82
2023/11/16 02:21:08;;;;;;;20.77;4.43;;;9.40;99.90;;;9.59;74.21;100540.56;5091458;28;20072;-82
2023/11/16 02:23:37;;;;;;;15.40;2.88;;;9.40;99.90;;;9.50;73.40;100545.28;5081554;28;20047;-82
2023/11/16 02:26:07;;;;;;;12.52;2.78;;;9.30;99.90;;;9.52;73.85;100545.09;5102767;28;20517;-82
2023/11/16 02:28:34;;;;;;;18.33;3.60;;;9.30;99.90;;;9.47;73.99;100539.56;5102627;28;20036;-82
2023/11/16 02:31:02;;;;;;;14.98;3.00;;;9.30;99.90;;;9.44;73.50;100535.44;5101561;28;20036;-82
2023/11/16 02:33:30;;;;;;;11.30;3.38;;;9.30;99.90;;;9.47;73.95;100531.56;5102101;28;20032;-82
2023/11/16 02:35:58;;;;;;;14.65;3.65;;;9.30;99.90;;;9.47;73.97;100524.41;5101670;28;20059;-82
2023/11/16 02:38:26;;;;;;;13.50;3.00;;;9.30;99.90;;;9.48;73.85;100525.22;5091693;28;20499;-82
2023/11/16 02:40:55;;;;;;;15.43;3.60;;;9.30;99.90;;;9.48;73.93;100519.88;5080304;28;20132;-82
2023/11/16 02:43:24;;;;;;;18.52;3.35;;;9.30;99.90;;;9.48;73.62;100525.22;5092753;28;20048;-82
2023/11/16 02:45:51;;;;;;;16.70;3.28;;;9.30;99.90;;;9.48;73.74;100526.03;5100548;28;20071;-82
2023/11/16 02:48:19;;;;;;;12.50;2.75;;;9.30;99.90;;;9.50;73.80;100517.84;5101705;28;20506;-82
2023/11/16 02:50:46;;;;;;;16.80;3.08;;;9.30;99.90;;;9.54;73.91;100519.06;5101853;28;20050;-82
2023/11/16 02:53:13;;;;;;;10.98;3.45;;;9.30;99.90;;;9.57;73.75;100516.00;5081825;28;20056;-82
2023/11/16 02:55:41;;;;;;;13.75;3.38;;;9.40;99.90;;;9.59;73.84;100510.47;5093452;28;20040;-82
2023/11/16 02:58:09;;;;;;;16.25;3.42;;;9.40;99.90;;;9.55;73.48;100510.06;5081980;28;20045;-82
2023/11/16 03:00:38;;;;;;;12.65;3.15;;;9.40;99.90;;;9.54;73.53;100513.75;5080199;28;20143;-82
2023/11/16 03:03:08;;;;;;;13.23;3.05;;;9.40;99.90;;;9.54;73.59;100508.41;5081497;28;20047;-82
2023/11/16 03:05:35;;;;;;;12.38;3.35;;;9.40;99.90;;;9.52;73.78;100513.97;5080628;28;20043;-82
2023/11/16 03:08:02;;;;;;;13.43;2.92;;;9.30;99.90;;;9.51;73.76;100512.28;5079216;28;20063;-82
2023/11/16 03:10:32;;;;;;;11.65;2.90;;;9.30;99.90;;;9.52;73.90;100505.97;5081438;28;20036;-82
2023/11/16 03:13:00;;;;;;;13.75;3.00;;;9.30;99.90;;;9.56;73.95;100506.38;5101389;28;20040;-82
2023/11/16 03:15:29;;;;;;;22.67;3.40;;;9.30;99.90;;;9.53;73.52;100507.59;5099489;28;20040;-82
2023/11/16 03:17:57;;;;;;;16.00;4.10;;;9.30;99.90;;;9.53;73.80;100509.44;5101303;28;20040;-82
2023/11/16 03:20:26;;;;;;;14.60;3.35;;;9.40;99.90;;;9.57;74.04;100508.03;5101452;28;20107;-82
2023/11/16 03:22:53;;;;;;;12.43;2.90;;;9.40;99.90;;;9.55;73.68;100507.38;5100923;28;20048;-82
2023/11/16 03:25:20;;;;;;;12.68;3.38;;;9.30;99.90;;;9.53;73.77;100504.94;5100089;28;20089;-82
2023/11/16 03:27:51;;;;;;;12.77;3.20;;;9.30;99.90;;;9.49;73.52;100505.53;5101256;28;20040;-82
2023/11/16 03:30:18;;;;;;;16.27;3.60;;;9.30;99.90;;;9.48;73.52;100510.06;5100407;28;20036;-82
2023/11/16 03:32:48;;;;;;;16.33;3.13;;;9.30;99.90;;;9.54;73.68;100509.22;5100194;28;20452;-82
2023/11/16 03:35:16;;;;;;;18.38;3.13;;;9.30;99.90;;;9.54;73.30;100503.09;5116415;28;20039;-82
2023/11/16 03:37:44;;;;;;;13.75;3.00;;;9.30;99.90;;;9.50;73.23;100507.19;5100798;28;20067;-82
2023/11/16 03:40:13;;;;;;;10.85;3.00;;;9.30;99.90;;;9.41;73.72;100509.22;5100368;28;20048;-82
2023/11/16 03:42:40;;;;;;;13.25;3.58;;;9.30;99.90;;;9.32;73.67;100504.28;5100884;28;20040;-82
2023/11/16 03:45:09;;;;;;;11.85;3.38;;;9.20;99.90;;;9.29;74.47;100511.66;5100469;28;20097;-82
2023/11/16 03:47:38;;;;;;;10.55;2.90;;;9.20;99.90;;;9.33;74.66;100514.75;5100972;28;20040;-82
2023/11/16 03:50:09;;;;;;;13.55;3.88;;;9.20;99.90;;;9.33;74.44;100511.25;5098945;28;20044;-82
2023/11/16 03:52:36;;;;;;;12.50;3.10;;;9.20;99.90;;;9.33;74.29;100495.31;5095109;28;20048;-82
2023/11/16 03:55:05;;;;;;;12.38;3.20;;;9.20;99.90;;;9.37;74.41;100509.81;5080126;28;20042;-82
2023/11/16 03:57:32;;;;;;;17.92;4.25;;;9.20;99.90;;;9.43;74.65;100509.03;5079626;28;20527;-82
2023/11/16 03:59:59;;;;;;;13.95;3.50;;;9.30;99.90;;;9.48;74.10;100510.06;5080220;28;20075;-82
2023/11/16 04:02:27;;;;;;;19.08;3.47;;;9.30;99.90;;;9.38;73.52;100508.81;5078741;28;20093;-82
2023/11/16 04:04:56;;;;;;;15.90;3.33;;;9.30;99.90;;;9.23;74.04;100507.16;5080394;28;20054;-82
2023/11/16 04:07:25;;;;;;;17.45;4.35;;;9.20;99.90;;;9.19;74.57;100511.22;5079728;28;20051;-82
2023/11/16 04:09:53;;;;;;;10.30;3.40;;;9.20;99.90;;;9.27;74.94;100505.72;5078420;28;20044;-82
2023/11/16 04:12:23;;;;;;;13.27;3.10;;;9.20;99.90;;;9.37;74.70;100505.34;5080374;28;20127;-82
2023/11/16 04:14:50;;;;;;;15.95;3.50;;;9.30;99.90;;;9.41;74.32;100506.53;5080502;28;20028;-82
2023/11/16 04:17:17;;;;;;;19.48;4.47;;;9.30;99.90;;;9.38;74.49;100508.81;5080160;28;20076;-82
2023/11/16 04:19:45;;;;;;;17.98;3.88;;;9.30;99.90;;;9.47;74.40;100510.28;5079712;28;20504;-82
2023/11/16 04:22:15;;;;;;;15.55;3.33;;;9.30;99.90;;;9.42;73.96;100502.03;5079976;28;20499;-82
2023/11/16 04:24:44;;;;;;;12.15;3.70;;;9.30;99.90;;;9.45;74.01;100504.31;5092147;28;20052;-82
2023/11/16 04:27:12;;;;;;;16.50;3.65;;;9.30;99.90;;;9.46;74.15;100504.09;5100590;28;20044;-82
2023/11/16 04:29:42;;;;;;;17.00;3.50;;;9.30;99.90;;;9.49;74.17;100498.38;5098328;28;20040;-82
2023/11/16 04:32:11;;;;;;;15.73;3.60;;;9.40;99.90;;;9.52;73.94;100497.97;5100191;28;20491;-82
2023/11/16 04:34:39;;;;;;;14.18;3.35;;;9.40;99.90;;;9.56;74.22;100506.38;5100230;28;20097;-82
2023/11/16 04:37:07;;;;;;;18.85;3.08;;;9.40;99.90;;;9.58;74.21;100500.84;5098678;28;20073;-82
2023/11/16 04:39:34;;;;;;;13.70;3.55;;;9.40;99.90;;;9.60;74.29;100499.59;5099828;28;20052;-82
2023/11/16 04:42:03;;;;;;;15.57;4.10;;;9.40;99.90;;;9.60;73.98;100498.78;5100761;28;20052;-82
2023/11/16 04:44:34;;;;;;;16.10;3.45;;;9.40;99.90;;;9.62;73.93;100492.25;5101281;28;20039;-82
2023/11/16 04:47:01;;;;;;;17.45;3.20;;;9.40;99.90;;;9.55;73.65;100478.91;5094384;28;20040;-82
2023/11/16 04:49:29;;;;;;;13.40;3.53;;;9.40;99.90;;;9.49;73.82;100489.56;5083147;28;20043;-82
2023/11/16 04:51:57;;;;;;;16.35;4.15;;;9.40;99.90;;;9.53;73.91;100491.63;5083626;28;20055;-82
2023/11/16 04:54:26;;;;;;;10.95;3.47;;;9.40;99.90;;;9.50;73.88;100485.88;5082029;28;20492;-82
2023/11/16 04:56:53;;;;;;;19.60;3.45;;;9.30;99.90;;;9.53;74.32;100485.47;5083847;28;20040;-82
2023/11/16 04:59:22;;;;;;;15.10;3.40;;;9.30;99.90;;;9.56;74.32;100490.38;5082931;28;20048;-82
2023/11/16 05:01:49;;;;;;;16.65;4.32;;;9.30;99.90;;;9.59;74.14;100492.66;5082834;28;20063;-82
2023/11/16 05:04:17;;;;;;;14.20;3.17;;;9.40;99.90;;;9.58;74.06;100487.53;5083014;28;20041;-83
2023/11/16 05:06:45;;;;;;;19.60;3.60;;;9.40;99.90;;;9.50;74.21;100491.22;5083413;28;20063;-82
2023/11/16 05:09:13;;;;;;;15.00;3.70;;;9.30;99.90;;;9.53;74.62;100496.13;5079571;28;20092;-82
2023/11/16 05:11:41;;;;;;;17.65;3.67;;;9.30;99.90;;;9.55;74.53;100492.22;5098567;28;20210;-84
2023/11/16 05:14:08;;;;;;;17.58;4.22;;;9.40;99.90;;;9.51;74.09;100488.34;5093051;28;20044;-84
2023/11/16 05:16:37;;;;;;;14.75;3.38;;;9.30;99.90;;;9.49;74.65;100490.41;5078273;28;20048;-81
2023/11/16 05:19:04;;;;;;;14.95;3.22;;;9.30;99.90;;;9.51;75.16;100498.97;5080630;28;20044;-81
2023/11/16 05:21:31;;;;;;;13.10;3.50;;;9.30;99.90;;;9.58;75.19;100492.88;5092272;28;20511;-81
2023/11/16 05:23:59;;;;;;;14.77;3.30;;;9.40;99.90;;;9.61;75.13;100492.44;5100726;28;20039;-82
2023/11/16 05:26:26;;;;;;;15.75;3.28;;;9.40;99.90;;;9.60;75.15;100496.94;5100088;28;20066;-82
2023/11/16 05:28:53;;;;;;;20.40;4.43;;;9.40;99.90;;;9.61;75.45;100501.25;5099748;28;20048;-81
2023/11/16 05:31:21;;;;;;;12.23;3.50;;;9.40;99.90;;;9.60;75.91;100496.13;5101508;28;20048;-81
2023/11/16 05:33:50;;;;;;;13.90;4.05;;;9.40;99.90;;;9.61;75.68;100492.44;5099844;28;20044;-82
2023/11/16 05:36:18;;;;;;;17.80;3.80;;;9.40;99.90;;;9.58;75.76;100491.03;5098674;28;20036;-82
2023/11/16 05:38:45;;;;;;;16.70;3.67;;;9.30;99.90;;;9.55;75.97;100502.88;5101922;28;20464;-82
2023/11/16 05:41:15;;;;;;;14.25;3.83;;;9.40;99.90;;;9.59;76.14;100495.31;5100504;28;20377;-82
2023/11/16 05:43:42;;;;;;;14.18;3.83;;;9.40;99.90;;;9.61;76.16;100490.59;5088105;28;20429;-81
2023/11/16 05:46:11;;;;;;;15.00;4.22;;;9.40;99.90;;;9.61;76.05;100485.25;5089080;28;20119;-82
2023/11/16 05:48:40;;;;;;;14.10;4.10;;;9.40;99.90;;;9.62;76.33;100478.94;5081436;28;20041;-82
2023/11/16 05:51:09;;;;;;;18.85;4.25;;;9.40;99.90;;;9.61;76.35;100474.63;5099142;28;20063;-82
2023/11/16 05:53:36;;;;;;;13.18;3.88;;;9.40;99.90;;;9.62;76.35;100478.94;5099602;28;20043;-82
2023/11/16 05:56:04;;;;;;;17.15;4.05;;;9.40;99.90;;;9.61;76.40;100471.94;5100167;28;20044;-81
2023/11/16 05:58:32;;;;;;;14.38;3.92;;;9.30;99.90;;;9.60;76.38;100491.63;5097155;28;20063;-84
2023/11/16 06:00:59;;;;;;;14.10;4.50;;;9.40;99.90;;;9.57;76.55;100485.91;5096980;28;20040;-84
2023/11/16 06:03:27;;;;;;;16.70;4.47;;;9.30;99.90;;;9.53;76.59;100488.16;5095634;28;20036;-83
2023/11/16 06:05:57;;;;;;;14.32;3.80;;;9.30;99.90;;;9.52;77.23;100483.84;5077512;28;20044;-84
2023/11/16 06:08:26;;;;;;;13.63;4.28;;;9.30;99.90;;;9.53;77.19;100490.81;5076702;28;20048;-83
2023/11/16 06:10:53;;;;;;;10.55;3.63;;;9.30;99.90;;;9.55;77.13;100489.56;5079182;28;20064;-84
2023/11/16 06:13:22;;;;;;;16.23;4.40;;;9.30;99.90;;;9.55;77.19;100494.06;5079261;28;20072;-84
2023/11/16 06:15:50;;;;;;;14.95;4.13;;;9.30;99.90;;;9.54;77.27;100487.13;5080201;28;20036;-84
2023/11/16 06:18:17;;;;;;;17.50;3.90;;;9.30;99.90;;;9.56;77.34;100482.41;5079597;28;20086;-83
2023/11/16 06:20:45;;;;;;;15.25;4.30;;;9.30;99.90;;;9.59;77.39;100479.34;5088693;28;20067;-83
2023/11/16 06:23:13;;;;;;;16.13;4.10;;;9.30;99.90;;;9.58;77.51;100477.72;5099050;28;20040;-83
2023/11/16 06:25:42;;;;;;;20.70;4.53;;;9.30;99.90;;;9.53;77.37;100475.66;5081077;28;20075;-83
2023/11/16 06:28:10;;;;;;;15.35;4.30;;;9.30;99.90;;;9.50;77.69;100483.22;5079965;28;20044;-83
2023/11/16 06:30:39;;;;;;;11.40;4.03;;;9.30;99.90;;;9.53;77.79;100477.50;5076703;28;20048;-83
2023/11/16 06:33:08;;;;;;;16.77;4.07;;;9.30;99.90;;;9.51;77.82;100475.03;5078612;28;20037;-83
2023/11/16 06:35:35;;;;;;;16.30;4.30;;;9.20;99.90;;;9.50;77.78;100465.41;5078633;28;20036;-83
2023/11/16 06:38:03;;;;;;;17.92;4.55;;;9.30;99.90;;;9.52;77.90;100467.88;5082404;28;20105;-83
2023/11/16 06:40:30;;;;;;;20.10;4.18;;;9.30;99.90;;;9.50;77.82;100461.91;5099279;28;20048;-83
2023/11/16 06:42:59;;;;;;;15.10;3.92;;;9.30;99.90;;;9.52;77.91;100468.69;5099116;28;20075;-83
2023/11/16 06:45:28;;;;;;;15.10;4.45;;;9.30;99.90;;;9.52;78.07;100468.69;5099386;28;20115;-83
2023/11/16 06:48:00;;;;;;;14.27;4.20;;;9.30;99.90;;;9.54;78.27;100463.97;5099684;28;20044;-83
2023/11/16 06:50:28;;;;;;;17.65;4.30;;;9.30;99.90;;;9.52;77.85;100463.38;5100024;28;20091;-83
2023/11/16 06:52:55;;;;;;;13.57;3.78;;;9.30;99.90;;;9.50;77.80;100459.25;5099486;28;20040;-83
2023/11/16 06:55:26;;;;;;;11.27;3.92;;;9.20;99.90;;;9.51;78.03;100467.03;5100338;28;20514;-83
2023/11/16 06:57:53;;;;;;;11.27;3.70;;;9.30;99.90;;;9.52;78.09;100465.22;5099601;28;20038;-83
2023/11/16 07:00:23;;;;;;;13.55;4.72;;;9.30;99.90;;;9.51;78.16;100456.38;5097872;28;20044;-83
2023/11/16 07:02:50;;;;;;;15.02;4.13;;;9.30;99.90;;;9.52;78.16;100459.91;5098385;28;20040;-83
2023/11/16 07:05:19;;;;;;;15.10;3.97;;;9.30;99.90;;;9.54;78.24;100460.50;5098905;28;20109;-83
2023/11/16 07:07:47;;;;;;;12.60;3.53;;;9.30;99.90;;;9.53;78.25;100450.88;5078000;28;20048;-83
2023/11/16 07:10:15;;;;;;;17.42;3.92;;;9.30;99.90;;;9.53;78.45;100448.22;5076921;28;20110;-83
2023/11/16 07:12:43;;;;;;;14.48;4.30;;;9.30;99.90;;;9.52;78.10;100447.41;5082624;28;20063;-83
2023/11/16 07:15:11;;;;;;;13.25;4.30;;;9.30;99.90;;;9.52;78.27;100451.91;5097569;28;20043;-83
2023/11/16 07:17:41;;;;;;;10.93;4.05;;;9.30;99.90;;;9.52;78.28;100447.41;5097468;28;20071;-83
2023/11/16 07:20:13;;;;;;;20.13;5.18;;;9.30;99.90;;;9.52;78.30;100439.41;5096575;28;20067;-84
2023/11/16 07:22:41;;;;;;;23.20;4.80;;;9.30;99.90;;;9.53;78.19;100426.91;5097960;28;20040;-83
2023/11/16 07:25:09;;;;;;;18.58;4.75;;;9.30;99.90;;;9.45;78.06;100421.78;5097021;28;20086;-83
2023/11/16 07:27:38;;;;;;;19.58;4.50;;;9.20;99.90;;;9.44;78.08;100418.31;5097142;28;20487;-83
2023/11/16 07:30:08;;;;;;;16.10;4.78;;;9.20;99.90;;;9.47;77.95;100417.09;5096825;28;20103;-83
2023/11/16 07:32:35;;;;;;;16.95;4.38;;;9.20;99.90;;;9.48;77.83;100421.38;5096725;28;20499;-83
2023/11/16 07:35:14;;;;;;;11.98;4.05;;;9.20;99.90;;;9.49;77.82;100415.03;5097642;28;20055;-83
2023/11/16 07:37:44;;;;;;;12.13;3.85;;;9.30;99.90;;;9.49;78.12;100412.38;5094849;28;20052;-83
2023/11/16 07:40:13;;;;;;;13.35;5.05;;;9.30;99.90;;;9.49;78.13;100405.19;5085258;28;20208;-83
2023/11/16 07:42:41;;;;;;;19.33;4.50;;;9.20;99.90;;;9.50;78.28;100403.34;5077351;28;20052;-83
2023/11/16 07:45:10;;;;;;;16.25;5.10;;;9.30;99.90;;;9.52;78.13;100404.00;5076976;28;20040;-84
2023/11/16 07:47:41;;;;;;;16.95;4.03;;;9.30;99.90;;;9.45;78.13;100397.84;5073964;28;20557;-84
2023/11/16 07:50:12;;;;;;;13.20;4.53;;;9.20;99.90;;;9.45;78.35;100398.66;5075594;28;20037;-83
2023/11/16 07:52:43;;;;;;;17.17;4.75;;;9.20;99.90;;;9.46;78.49;100386.97;5075556;28;20047;-84
2023/11/16 07:55:15;;;;;;;16.13;4.25;;;9.20;99.90;;;9.48;78.41;100387.59;5075964;28;20044;-83
2023/11/16 07:57:47;;;;;;;15.57;4.38;;;9.20;99.90;;;9.48;78.44;100378.81;5074385;28;20076;-83
2023/11/16 08:00:22;;;;;;;14.95;4.30;;;9.20;99.90;;;9.51;78.31;100368.53;5076067;28;20048;-83
2023/11/16 08:05:37;;;;;;;15.20;4.63;;;9.30;99.90;;;9.52;78.25;100364.06;5077113;28;20099;-83
2023/11/16 08:08:07;;;;;;;20.50;4.63;;;9.30;99.90;;;9.52;78.46;100356.06;5077211;28;20044;-83
2023/11/16 08:10:34;;;;;;;19.02;4.13;;;9.30;99.90;;;9.54;78.65;100359.31;5076839;28;20068;-83
2023/11/16 08:13:02;;;;;;;16.23;4.40;;;9.30;99.90;;;9.56;78.88;100357.25;5076388;28;20052;-83
2023/11/16 08:15:32;;;;;;;17.95;4.50;;;9.40;99.90;;;9.57;78.80;100364.25;5076106;28;20095;-83
2023/11/16 08:18:03;;;;;;;17.85;4.30;;;9.40;99.90;;;9.60;78.58;100365.66;5075902;28;20040;-83
2023/11/16 08:20:31;;;;;;;16.88;4.75;;;9.40;99.90;;;9.59;78.38;100362.19;5099807;28;20119;-83
2023/11/16 08:23:00;;;;;;;19.25;4.03;;;9.40;99.90;;;9.58;78.28;100360.56;5100871;28;20071;-84
2023/11/16 08:25:28;;;;;;;15.95;4.90;;;9.40;99.90;;;9.60;78.42;100368.31;5095288;28;20040;-83
2023/11/16 08:27:57;;;;;;;14.52;4.63;;;9.40;99.90;;;9.56;78.28;100367.91;5078406;28;20049;-83
2023/11/16 08:30:25;;;;;;;16.55;4.95;;;9.40;99.90;;;9.60;78.43;100368.31;5096087;28;20452;-84
2023/11/16 08:32:53;;;;;;;18.40;4.40;;;9.40;99.90;;;9.63;78.73;100370.59;5100455;28;20048;-84
2023/11/16 08:35:23;;;;;;;15.93;4.18;;;9.40;99.90;;;9.65;78.78;100365.84;5100645;28;20048;-83
2023/11/16 08:37:52;;;;;;;18.00;4.50;;;9.40;99.90;;;9.67;78.24;100375.28;5100746;28;20078;-84
2023/11/16 08:40:23;;;;;;;11.65;4.15;;;9.50;99.90;;;9.69;78.25;100375.91;5100990;28;20032;-84
2023/11/16 08:42:51;;;;;;;16.05;4.20;;;9.50;99.90;;;9.65;78.50;100366.69;5099885;28;20041;-83
2023/11/16 08:45:20;;;;;;;19.00;4.60;;;9.50;99.90;;;9.65;78.39;100357.88;5080760;28;20451;-83
2023/11/16 08:47:51;;;;;;;17.55;4.78;;;9.50;99.90;;;9.69;79.05;100362.56;5080823;28;20119;-84
2023/11/16 08:50:20;;;;;;;17.15;4.57;;;9.50;99.90;;;9.71;78.91;100362.34;5080686;28;20048;-83
2023/11/16 08:52:48;;;;;;;18.05;4.72;;;9.50;99.90;;;9.74;78.94;100361.97;5080832;28;20075;-83
2023/11/16 08:55:21;;;;;;;17.92;4.63;;;9.50;99.90;;;9.64;78.59;100364.22;5080902;28;20048;-83
2023/11/16 08:57:50;;;;;;;17.15;4.95;;;9.50;99.90;;;9.60;78.82;100366.47;5078946;28;20143;-83
2023/11/16 09:00:33;;;;;;;21.83;4.45;;;9.50;99.90;;;9.64;78.75;100370.38;5080438;28;20123;-84
2023/11/16 09:03:04;;;;;;;15.20;4.22;;;9.50;99.90;;;9.68;78.58;100376.09;5083069;28;20033;-84
2023/11/16 09:05:33;;;;;;;17.80;4.75;;;9.50;99.90;;;9.70;78.92;100380.19;5080308;28;20036;-84
2023/11/16 09:08:02;;;;;;;18.83;5.05;;;9.50;99.90;;;9.71;78.94;100373.00;5078853;28;20048;-84
2023/11/16 09:10:32;;;;;;;23.77;4.80;;;9.50;99.90;;;9.71;79.06;100365.88;5079643;28;20055;-84
2023/11/16 09:13:03;;;;;;;12.70;4.15;;;9.50;99.90;;;9.73;79.01;100353.16;5080230;28;20044;-84
2023/11/16 09:15:31;;;;;;;11.68;4.57;;;9.50;99.90;;;9.71;78.65;100346.38;5080618;28;20066;-84
2023/11/16 09:17:59;;;;;;;13.70;4.25;;;9.50;99.90;;;9.71;78.63;100336.56;5080171;28;20090;-83
2023/11/16 09:20:28;;;;;;;21.20;5.00;;;9.50;99.90;;;9.75;78.79;100340.44;5089649;28;20063;-84
2023/11/16 09:22:57;;;;;;;16.15;4.95;;;9.60;99.90;;;9.79;78.66;100346.97;5079433;28;20052;-83
2023/11/16 09:25:29;;;;;;;12.60;3.85;;;9.60;99.90;;;9.83;79.09;100346.56;5082098;28;20044;-83
2023/11/16 09:28:00;;;;;;;19.70;4.60;;;9.60;99.90;;;9.84;78.91;100342.88;5097814;28;20071;-83
2023/11/16 09:30:28;;;;;;;16.40;4.72;;;9.60;99.90;;;9.83;78.81;100341.25;5095814;28;20048;-83
2023/11/16 09:32:57;;;;;;;14.98;5.15;;;9.60;99.90;;;9.86;78.96;100335.47;5096094;28;20036;-83
2023/11/16 09:35:27;;;;;;;17.10;4.90;;;9.70;99.90;;;9.88;78.48;100333.44;5098331;28;20415;-84
2023/11/16 09:37:56;;;;;;;15.77;5.10;;;9.70;99.90;;;9.78;77.76;100332.03;5097996;28;20051;-83
2023/11/16 09:40:28;;;;;;;20.88;4.88;;;9.60;99.90;;;9.70;78.32;100332.25;5095686;28;20055;-84
2023/11/16 09:43:01;;;;;;;16.33;4.82;;;9.60;99.90;;;9.70;77.82;100326.94;5093429;28;20067;-84
2023/11/16 09:45:31;;;;;;;15.68;4.47;;;9.60;99.90;;;9.70;77.88;100320.78;5096700;28;20127;-83
2023/11/16 09:48:01;;;;;;;13.82;4.65;;;9.60;99.90;;;9.77;78.20;100306.44;5096229;28;20114;-84
2023/11/16 09:50:29;;;;;;;16.25;5.15;;;9.60;99.90;;;9.83;78.17;100304.78;5085234;28;20060;-83
2023/11/16 09:52:57;;;;;;;17.70;4.72;;;9.60;99.90;;;9.84;78.12;100314.41;5078591;28;20059;-83
2023/11/16 09:55:30;;;;;;;15.00;4.53;;;9.70;99.90;;;9.84;78.02;100309.06;5092743;28;20071;-84
2023/11/16 09:58:08;;;;;;;17.02;5.03;;;9.70;99.90;;;9.85;77.84;100309.88;5113716;28;20044;-84
2023/11/16 10:00:36;;;;;;;21.35;5.38;;;9.70;99.90;;;9.85;78.11;100305.38;5095505;28;20047;-85
2023/11/16 10:03:05;;;;;;;17.95;5.03;;;9.70;99.90;;;9.87;78.08;100313.16;5096013;28;20032;-85
2023/11/16 10:05:36;;;;;;;21.35;5.47;;;9.70;99.90;;;9.89;77.99;100313.75;5096004;28;20039;-85
2023/11/16 10:08:08;;;;;;;17.25;4.75;;;9.70;99.90;;;9.90;78.18;100316.22;5094949;28;20048;-84
2023/11/16 10:10:36;;;;;;;17.88;5.13;;;9.70;99.90;;;9.92;78.69;100308.03;5093246;28;20050;-84
2023/11/16 10:13:06;;;;;;;20.15;5.47;;;9.70;99.90;;;9.90;78.43;100304.75;5094330;28;20043;-84
2023/11/16 10:15:35;;;;;;;20.17;6.18;;;9.70;99.90;;;9.91;78.48;100298.41;5095770;28;20055;-85
2023/11/16 10:18:09;;;;;;;20.50;5.32;;;9.70;99.90;;;9.93;78.24;100288.34;5095721;28;20040;-85
2023/11/16 10:20:40;;;;;;;15.38;5.63;;;9.70;99.90;;;9.94;78.33;100290.78;5084729;28;20105;-85
2023/11/16 10:23:09;;;;;;;13.57;5.05;;;9.70;99.90;;;9.95;77.76;100278.28;5077867;28;20047;-85
2023/11/16 10:25:38;;;;;;;16.75;5.72;;;9.80;99.90;;;9.93;78.18;100278.50;5091291;28;20044;-84
2023/11/16 10:28:19;;;;;;;14.38;6.13;;;9.70;99.90;;;9.93;78.04;100278.50;5080174;28;20056;-85
2023/11/16 10:30:49;;;;;;;;;;;9.70;99.90;;;9.91;78.50;100271.78;5091289;28;20051;-85